createdAt,value
2019-03-10T00:02:05.811Z,54.30
2019-03-10T00:04:36.293Z,54.30
2019-03-10T00:07:07.013Z,54.20
2019-03-10T00:09:37.737Z,54.20
2019-03-10T00:12:08.335Z,54.50
2019-03-10T00:14:39.179Z,54.40
2019-03-10T00:17:09.897Z,54.20
2019-03-10T00:19:40.505Z,54.20
2019-03-10T00:22:11.225Z,54.20
2019-03-10T00:24:41.826Z,54.30
2019-03-10T00:27:12.434Z,54.30
2019-03-10T00:29:43.147Z,54.10
2019-03-10T00:32:13.867Z,54.00
2019-03-10T00:34:44.471Z,53.90
2019-03-10T00:37:15.194Z,54.30
2019-03-10T00:40:15.310Z,53.80
2019-03-10T00:43:32.473Z,53.80
2019-03-10T00:46:30.075Z,53.90
2019-03-10T00:49:53.959Z,53.80
2019-03-10T00:52:34.999Z,53.80
2019-03-10T00:55:06.201Z,53.80
2019-03-10T00:57:36.923Z,53.80
2019-03-10T01:00:10.404Z,53.80
2019-03-10T01:02:41.001Z,53.80
2019-03-10T01:05:18.084Z,53.80
2019-03-10T01:07:50.488Z,53.80
2019-03-10T01:10:21.565Z,53.80
2019-03-10T01:12:52.416Z,53.80
2019-03-10T01:15:23.128Z,53.80
2019-03-10T01:17:55.170Z,53.80
2019-03-10T01:20:26.611Z,53.70
2019-03-10T01:22:57.215Z,53.60
2019-03-10T01:25:28.177Z,53.60
2019-03-10T01:27:59.138Z,53.40
2019-03-10T01:30:36.581Z,53.40
2019-03-10T01:33:46.781Z,53.50
2019-03-10T01:36:15.703Z,53.70
2019-03-10T01:38:46.303Z,53.50
2019-03-10T01:41:17.269Z,53.30
2019-03-10T01:43:47.867Z,53.30
2019-03-10T01:46:18.465Z,53.30
2019-03-10T01:48:49.309Z,53.60
2019-03-10T01:51:19.905Z,53.80
2019-03-10T01:53:50.631Z,53.80
2019-03-10T01:56:21.124Z,53.80
2019-03-10T01:58:51.591Z,53.90
2019-03-10T02:01:22.200Z,53.80
2019-03-10T02:03:52.798Z,53.80
2019-03-10T02:06:23.635Z,53.90
2019-03-10T02:08:54.521Z,53.90
2019-03-10T02:11:24.959Z,54.00
2019-03-10T02:13:55.443Z,54.00
2019-03-10T02:16:25.923Z,54.00
2019-03-10T02:18:56.646Z,54.10
2019-03-10T02:21:27.481Z,54.10
2019-03-10T02:23:58.325Z,54.20
2019-03-10T02:26:28.808Z,54.50
2019-03-10T02:28:59.406Z,54.20
2019-03-10T02:31:30.008Z,54.20
2019-03-10T02:34:01.096Z,54.20
2019-03-10T02:36:31.583Z,54.20
2019-03-10T02:39:02.078Z,54.20
2019-03-10T02:41:33.732Z,54.30
2019-03-10T02:44:04.458Z,54.40
2019-03-10T02:46:35.055Z,54.30
2019-03-10T02:49:05.668Z,54.20
2019-03-10T02:51:36.260Z,54.30
2019-03-10T02:54:06.863Z,54.50
2019-03-10T02:56:37.465Z,54.50
2019-03-10T02:59:08.068Z,54.50
2019-03-10T03:01:38.668Z,54.60
2019-03-10T03:04:09.266Z,54.50
2019-03-10T03:06:40.228Z,54.60
2019-03-10T03:09:10.826Z,54.50
2019-03-10T03:11:42.034Z,54.40
2019-03-10T03:14:12.635Z,54.40
2019-03-10T03:16:43.353Z,54.60
2019-03-10T03:19:14.193Z,54.50
2019-03-10T03:21:44.679Z,54.40
2019-03-10T03:24:15.281Z,54.30
2019-03-10T03:26:46.000Z,54.20
2019-03-10T03:29:16.607Z,54.10
2019-03-10T03:31:47.617Z,54.10
2019-03-10T03:34:18.043Z,53.70
2019-03-10T03:36:48.642Z,53.40
2019-03-10T03:39:49.007Z,52.60
2019-03-10T03:42:20.815Z,52.00
2019-03-10T03:44:51.406Z,50.30
2019-03-10T03:47:22.126Z,47.70
2019-03-10T03:49:52.850Z,47.50
2019-03-10T03:52:23.694Z,48.30
2019-03-10T03:54:54.173Z,49.70
2019-03-10T03:57:24.896Z,50.20
2019-03-10T03:59:55.613Z,50.70
2019-03-10T04:02:37.741Z,51.00
2019-03-10T04:07:44.938Z,51.70
2019-03-10T04:10:15.667Z,51.70
2019-03-10T04:12:46.145Z,51.30
2019-03-10T04:15:16.747Z,51.10
2019-03-10T04:17:47.345Z,50.80
2019-03-10T04:20:18.543Z,50.90
2019-03-10T04:22:49.269Z,50.50
2019-03-10T04:25:19.870Z,50.30
2019-03-10T04:27:50.226Z,50.30
2019-03-10T04:30:20.832Z,50.80
2019-03-10T04:32:51.430Z,51.00
2019-03-10T04:35:22.148Z,51.00
2019-03-10T04:37:52.995Z,51.30
2019-03-10T04:40:23.598Z,51.80
2019-03-10T04:42:54.088Z,52.30
2019-03-10T04:45:25.036Z,52.40
2019-03-10T04:47:55.640Z,52.70
2019-03-10T04:50:26.480Z,53.30
2019-03-10T04:52:57.082Z,53.70
2019-03-10T04:55:35.967Z,54.40
2019-03-10T04:58:09.083Z,55.30
2019-03-10T05:00:40.764Z,55.10
2019-03-10T05:03:11.609Z,55.40
2019-03-10T05:05:42.568Z,55.40
2019-03-10T05:08:13.175Z,55.70
2019-03-10T05:10:43.888Z,55.50
2019-03-10T05:13:14.853Z,55.50
2019-03-10T05:15:45.335Z,56.10
2019-03-10T05:18:16.172Z,56.00
2019-03-10T05:20:46.779Z,56.20
2019-03-10T05:23:31.416Z,56.60
2019-03-10T05:26:02.376Z,56.70
2019-03-10T05:28:33.939Z,56.60
2019-03-10T05:31:04.538Z,56.70
2019-03-10T05:33:35.744Z,57.10
2019-03-10T05:36:06.585Z,57.20
2019-03-10T05:38:37.182Z,57.00
2019-03-10T05:41:10.547Z,56.80
2019-03-10T05:43:41.149Z,56.70
2019-03-10T05:46:12.709Z,57.00
2019-03-10T05:48:43.554Z,57.60
2019-03-10T05:51:14.511Z,57.10
2019-03-10T05:53:44.992Z,57.50
2019-03-10T05:56:16.193Z,57.70
2019-03-10T05:58:46.919Z,57.50
2019-03-10T06:01:17.757Z,57.40
2019-03-10T06:03:48.242Z,57.50
2019-03-10T06:06:18.841Z,57.50
2019-03-10T06:08:50.879Z,57.60
2019-03-10T06:11:21.483Z,57.70
2019-03-10T06:13:52.445Z,57.90
2019-03-10T06:16:23.043Z,58.00
2019-03-10T06:18:53.768Z,58.30
2019-03-10T06:21:24.725Z,58.40
2019-03-10T06:23:55.329Z,58.40
2019-03-10T06:26:25.928Z,58.40
2019-03-10T06:28:56.653Z,58.30
2019-03-10T06:33:51.135Z,58.50
2019-03-10T06:36:21.735Z,58.40
2019-03-10T06:38:54.989Z,58.50
2019-03-10T06:41:57.625Z,58.70
2019-03-10T06:44:28.097Z,58.60
2019-03-10T06:46:58.700Z,58.60
2019-03-10T06:49:30.987Z,58.80
2019-03-10T06:52:02.663Z,59.00
2019-03-10T06:54:33.265Z,59.00
2019-03-10T06:57:03.744Z,59.10
2019-03-10T06:59:34.226Z,59.00
2019-03-10T07:02:05.309Z,59.20
2019-03-10T07:04:36.147Z,59.10
2019-03-10T07:07:06.989Z,59.20
2019-03-10T07:09:37.473Z,59.40
2019-03-10T07:12:08.071Z,59.30
2019-03-10T07:14:38.673Z,59.40
2019-03-10T07:17:09.873Z,59.40
2019-03-10T07:19:40.717Z,59.50
2019-03-10T07:22:11.561Z,60.20
2019-03-10T07:24:42.038Z,59.60
2019-03-10T07:27:12.767Z,59.70
2019-03-10T07:29:47.919Z,59.60
2019-03-10T07:32:31.369Z,59.60
2019-03-10T07:35:38.683Z,59.60
2019-03-10T07:38:26.809Z,59.80
2019-03-10T07:41:22.005Z,59.70
2019-03-10T07:44:14.689Z,59.90
2019-03-10T07:46:51.055Z,60.20
2019-03-10T07:49:29.215Z,60.90
2019-03-10T07:52:30.895Z,61.00
2019-03-10T07:55:26.217Z,61.00
2019-03-10T07:58:18.539Z,61.90
2019-03-10T08:01:02.699Z,62.60
2019-03-10T08:03:50.463Z,63.50
2019-03-10T08:06:45.782Z,64.00
2019-03-10T08:09:38.344Z,64.90
2019-03-10T08:12:17.701Z,65.30
2019-03-10T08:15:10.385Z,66.40
2019-03-10T08:18:09.069Z,67.20
2019-03-10T08:20:59.349Z,67.70
2019-03-10T08:23:55.272Z,68.20
2019-03-10T08:26:43.391Z,68.80
2019-03-10T08:29:32.952Z,69.10
2019-03-10T08:32:22.517Z,68.90
2019-03-10T08:35:25.395Z,69.60
2019-03-10T08:38:13.639Z,69.60
2019-03-10T08:41:06.082Z,70.40
2019-03-10T08:44:02.242Z,70.50
2019-03-10T08:46:44.241Z,70.60
2019-03-10T08:49:44.433Z,70.30
2019-03-10T08:52:14.250Z,70.40
2019-03-10T08:55:06.686Z,69.80
2019-03-10T08:57:54.691Z,69.90
2019-03-10T09:00:35.612Z,69.60
2019-03-10T09:03:22.171Z,69.40
2019-03-10T09:06:17.370Z,69.40
2019-03-10T09:09:09.814Z,69.70
2019-03-10T09:11:56.021Z,70.10
2019-03-10T09:14:45.456Z,70.00
2019-03-10T09:17:33.935Z,70.00
2019-03-10T09:20:10.301Z,70.30
2019-03-10T09:22:55.781Z,71.10
2019-03-10T09:25:57.342Z,72.00
2019-03-10T09:28:46.907Z,73.00
2019-03-10T09:31:39.583Z,71.60
2019-03-10T09:34:35.989Z,71.80
2019-03-10T09:37:31.793Z,71.30
2019-03-10T09:40:28.915Z,71.50
2019-03-10T09:43:18.590Z,72.40
2019-03-10T09:45:56.392Z,72.30
2019-03-10T09:48:46.432Z,72.70
2019-03-10T09:51:30.000Z,72.80
2019-03-10T09:54:32.278Z,72.60
2019-03-10T09:57:37.076Z,72.20
2019-03-10T10:00:26.758Z,73.00
2019-03-10T10:03:09.001Z,73.40
2019-03-10T10:05:57.846Z,73.30
2019-03-10T10:09:04.081Z,73.20
2019-03-10T10:11:57.964Z,73.10
2019-03-10T10:14:57.251Z,73.20
2019-03-10T10:17:45.972Z,72.90
2019-03-10T10:20:32.409Z,73.10
2019-03-10T10:23:18.490Z,73.30
2019-03-10T10:26:06.732Z,73.50
2019-03-10T10:29:05.774Z,73.60
2019-03-10T10:31:43.576Z,74.10
2019-03-10T10:34:32.418Z,74.50
2019-03-10T10:37:27.739Z,74.40
2019-03-10T10:40:18.257Z,75.40
2019-03-10T10:43:08.178Z,76.40
2019-03-10T10:45:49.704Z,76.30
2019-03-10T10:48:24.868Z,77.40
2019-03-10T10:51:05.671Z,77.10
2019-03-10T10:53:49.236Z,76.50
2019-03-10T10:56:38.906Z,76.30
2019-03-10T10:59:29.310Z,76.30
2019-03-10T11:02:10.112Z,76.30
2019-03-10T11:04:59.791Z,77.00
2019-03-10T11:07:42.872Z,76.50
2019-03-10T11:10:48.513Z,76.50
2019-03-10T11:13:31.715Z,76.30
2019-03-10T11:16:39.757Z,76.10
2019-03-10T11:19:25.117Z,76.00
2019-03-10T11:22:08.078Z,76.10
2019-03-10T11:24:58.249Z,76.70
2019-03-10T11:27:46.005Z,76.70
2019-03-10T11:30:23.564Z,76.50
2019-03-10T11:33:28.485Z,76.80
2019-03-10T11:36:34.488Z,77.10
2019-03-10T11:39:29.572Z,76.10
2019-03-10T11:42:08.930Z,75.90
2019-03-10T11:45:01.851Z,75.60
2019-03-10T11:47:51.295Z,75.70
2019-03-10T11:50:39.775Z,75.40
2019-03-10T11:53:35.935Z,75.60
2019-03-10T11:56:20.221Z,75.30
2019-03-10T11:59:22.744Z,75.50
2019-03-10T12:02:15.990Z,75.50
2019-03-10T12:04:59.465Z,75.40
2019-03-10T12:07:58.983Z,75.30
2019-03-10T12:10:29.703Z,75.50
2019-03-10T12:13:00.669Z,75.30
2019-03-10T12:15:32.707Z,75.20
2019-03-10T12:18:03.787Z,75.70
2019-03-10T12:20:34.989Z,76.20
2019-03-10T12:23:07.271Z,76.40
2019-03-10T12:25:38.245Z,74.90
2019-03-10T12:28:09.434Z,75.70
2019-03-10T12:30:40.876Z,75.10
2019-03-10T12:33:11.837Z,74.60
2019-03-10T12:35:43.533Z,74.10
2019-03-10T12:38:15.679Z,74.50
2019-03-10T12:40:47.248Z,73.60
2019-03-10T12:43:18.563Z,73.30
2019-03-10T12:45:49.648Z,73.00
2019-03-10T12:48:21.210Z,73.00
2019-03-10T12:50:52.765Z,73.00
2019-03-10T12:53:24.686Z,72.40
2019-03-10T12:55:56.250Z,72.80
2019-03-10T12:58:27.449Z,73.00
2019-03-10T13:01:06.154Z,72.10
2019-03-10T13:03:31.703Z,71.50
2019-03-10T13:06:03.456Z,71.30
2019-03-10T13:08:34.534Z,71.90
2019-03-10T13:11:05.615Z,71.00
2019-03-10T13:13:37.059Z,70.40
2019-03-10T13:16:08.499Z,69.90
2019-03-10T13:18:39.581Z,70.10
2019-03-10T13:21:10.779Z,69.70
2019-03-10T13:23:41.740Z,69.50
2019-03-10T13:26:12.944Z,68.80
2019-03-10T13:28:43.782Z,68.20
2019-03-10T13:31:14.865Z,67.90
2019-03-10T13:33:46.189Z,67.60
2019-03-10T13:36:17.149Z,67.20
2019-03-10T13:38:47.878Z,66.10
2019-03-10T13:41:19.313Z,66.90
2019-03-10T13:43:50.753Z,66.00
2019-03-10T13:46:22.194Z,66.10
2019-03-10T13:48:54.475Z,65.00
2019-03-10T13:51:26.035Z,64.40
2019-03-10T13:53:57.235Z,64.30
2019-03-10T13:56:28.081Z,64.50
2019-03-10T13:59:00.248Z,64.50
2019-03-10T14:01:33.721Z,64.30
2019-03-10T14:04:05.163Z,64.20
2019-03-10T14:06:36.367Z,62.80
2019-03-10T14:09:08.643Z,62.30
2019-03-10T14:11:39.850Z,62.00
2019-03-10T14:14:11.413Z,60.80
2019-03-10T14:16:42.369Z,60.90
2019-03-10T14:19:13.832Z,60.30
2019-03-10T14:21:45.013Z,59.70
2019-03-10T14:24:15.732Z,58.70
2019-03-10T14:26:46.815Z,57.50
2019-03-10T14:29:18.139Z,57.60
2019-03-10T14:31:49.939Z,57.70
2019-03-10T14:34:21.860Z,58.40
2019-03-10T14:36:53.063Z,57.50
2019-03-10T14:39:24.381Z,56.50
2019-03-10T14:41:55.705Z,56.60
2019-03-10T14:44:26.661Z,56.60
2019-03-10T14:46:57.983Z,56.90
2019-03-10T14:49:29.786Z,56.90
2019-03-10T14:52:01.948Z,56.70
2019-03-10T14:54:33.148Z,57.00
2019-03-10T14:57:04.110Z,57.40
2019-03-10T14:59:35.550Z,57.00
2019-03-10T15:02:07.352Z,57.50
2019-03-10T15:04:38.551Z,58.00
2019-03-10T15:07:09.765Z,57.10
2019-03-10T15:09:42.758Z,57.40
2019-03-10T15:12:13.957Z,57.10
2019-03-10T15:14:44.918Z,57.40
2019-03-10T15:17:16.128Z,58.80
2019-03-10T15:19:46.971Z,59.20
2019-03-10T15:22:18.163Z,58.20
2019-03-10T15:24:49.132Z,57.60
2019-03-10T15:27:23.212Z,56.60
2019-03-10T15:29:52.376Z,56.30
2019-03-10T15:32:23.214Z,56.90
2019-03-10T15:34:53.808Z,60.20
2019-03-10T15:37:24.651Z,62.40
2019-03-10T15:39:55.372Z,63.40
2019-03-10T15:42:26.096Z,63.80
2019-03-10T15:44:56.937Z,62.70
2019-03-10T15:47:28.739Z,62.10
2019-03-10T15:49:59.458Z,61.70
2019-03-10T15:52:30.545Z,60.90
2019-03-10T15:55:01.386Z,60.70
2019-03-10T15:57:32.464Z,60.20
2019-03-10T16:00:03.666Z,60.00
2019-03-10T16:02:36.312Z,59.60
2019-03-10T16:05:07.273Z,58.90
2019-03-10T16:07:38.108Z,56.80
2019-03-10T16:10:09.911Z,55.60
2019-03-10T16:12:40.632Z,55.20
2019-03-10T16:15:13.149Z,52.30
2019-03-10T16:17:45.812Z,51.30
2019-03-10T16:20:20.356Z,50.80
2019-03-10T16:22:50.954Z,51.10
2019-03-10T16:25:21.796Z,50.60
2019-03-10T16:27:52.516Z,50.70
2019-03-10T16:30:23.598Z,50.70
2019-03-10T16:32:55.048Z,49.20
2019-03-10T16:35:25.635Z,49.10
2019-03-10T16:37:56.247Z,48.70
2019-03-10T16:40:28.288Z,48.50
2019-03-10T16:42:59.368Z,53.00
2019-03-10T16:45:30.524Z,55.60
2019-03-10T16:48:01.406Z,56.50
2019-03-10T16:50:32.377Z,56.90
2019-03-10T16:53:03.335Z,56.30
2019-03-10T16:55:34.173Z,56.20
2019-03-10T16:58:05.492Z,56.10
2019-03-10T17:00:36.572Z,55.30
2019-03-10T17:03:07.293Z,54.60
2019-03-10T17:05:38.026Z,53.60
2019-03-10T17:08:08.504Z,53.40
2019-03-10T17:10:39.340Z,52.90
2019-03-10T17:13:10.063Z,51.90
2019-03-10T17:15:44.146Z,51.60
2019-03-10T17:18:15.588Z,52.10
2019-03-10T17:20:46.424Z,51.00
2019-03-10T17:23:17.146Z,50.50
2019-03-10T17:25:47.867Z,49.20
2019-03-10T17:28:18.955Z,49.90
2019-03-10T17:30:50.269Z,48.90
2019-03-10T17:33:21.113Z,49.20
2019-03-10T17:35:51.955Z,49.10
2019-03-10T17:38:22.914Z,48.70
2019-03-10T17:40:54.113Z,48.10
2019-03-10T17:43:24.955Z,48.00
2019-03-10T17:45:55.921Z,47.70
2019-03-10T17:48:26.637Z,47.50
2019-03-10T17:50:57.839Z,48.10
2019-03-10T17:53:28.566Z,48.10
2019-03-10T17:55:59.164Z,47.40
2019-03-10T17:58:30.006Z,47.70
2019-03-10T18:01:00.604Z,47.70
2019-03-10T18:03:31.208Z,48.00
2019-03-10T18:06:01.935Z,47.20
2019-03-10T18:08:33.031Z,47.40
2019-03-10T18:11:03.988Z,47.20
2019-03-10T18:13:35.058Z,47.30
2019-03-10T18:16:06.978Z,46.50
2019-03-10T18:18:38.415Z,46.60
2019-03-10T18:21:08.895Z,46.40
2019-03-10T18:23:39.622Z,46.20
2019-03-10T18:26:10.223Z,45.60
2019-03-10T18:28:41.297Z,45.20
2019-03-10T18:31:12.385Z,45.30
2019-03-10T18:33:43.343Z,45.30
2019-03-10T18:36:14.060Z,45.00
2019-03-10T18:38:45.388Z,44.20
2019-03-10T18:41:15.987Z,44.10
2019-03-10T18:43:49.705Z,44.20
2019-03-10T18:46:20.553Z,43.10
2019-03-10T18:48:51.149Z,42.20
2019-03-10T18:51:21.991Z,42.10
2019-03-10T18:53:52.833Z,43.00
2019-03-10T18:56:23.675Z,42.00
2019-03-10T18:58:54.399Z,41.70
2019-03-10T19:01:25.238Z,42.30
2019-03-10T19:03:56.080Z,42.30
2019-03-10T19:06:26.925Z,42.90
2019-03-10T19:08:57.641Z,43.10
2019-03-10T19:11:28.362Z,43.10
2019-03-10T19:13:59.440Z,43.20
2019-03-10T19:16:30.044Z,43.20
2019-03-10T19:19:00.766Z,43.80
2019-03-10T19:21:32.452Z,44.30
2019-03-10T19:24:03.772Z,44.10
2019-03-10T19:26:34.609Z,43.90
2019-03-10T19:29:05.580Z,43.70
2019-03-10T19:31:36.171Z,43.40
2019-03-10T19:34:06.655Z,43.30
2019-03-10T19:36:38.212Z,42.70
2019-03-10T19:39:09.299Z,43.10
2019-03-10T19:41:40.735Z,43.40
2019-03-10T19:44:11.343Z,43.50
2019-03-10T19:46:42.421Z,43.30
2019-03-10T19:49:13.863Z,43.40
2019-03-10T19:51:44.709Z,43.60
2019-03-10T19:54:15.665Z,43.60
2019-03-10T19:56:46.746Z,43.80
2019-03-10T19:59:17.467Z,43.50
2019-03-10T20:01:47.951Z,43.20
2019-03-10T20:04:18.552Z,43.60
2019-03-10T20:06:49.630Z,43.20
2019-03-10T20:09:20.353Z,43.00
2019-03-10T20:11:51.913Z,43.70
2019-03-10T20:14:22.755Z,43.30
2019-03-10T20:16:53.480Z,42.70
2019-03-10T20:19:24.556Z,43.00
2019-03-10T20:21:55.279Z,42.60
2019-03-10T20:24:25.878Z,42.80
2019-03-10T20:26:56.601Z,43.10
2019-03-10T20:29:27.563Z,43.30
2019-03-10T20:31:58.284Z,43.60
2019-03-10T20:34:29.726Z,43.90
2019-03-10T20:37:01.651Z,44.10
2019-03-10T20:39:36.277Z,44.50
2019-03-10T20:42:07.291Z,44.50
2019-03-10T20:44:38.488Z,44.30
2019-03-10T20:47:09.208Z,44.90
2019-03-10T20:49:40.292Z,45.10
2019-03-10T20:52:12.332Z,44.60
2019-03-10T20:54:43.655Z,44.70
2019-03-10T20:57:14.496Z,44.50
2019-03-10T21:03:23.857Z,46.50
2019-03-10T21:05:54.345Z,46.70
2019-03-10T21:08:26.619Z,47.80
2019-03-10T21:10:58.303Z,48.70
2019-03-10T21:13:29.625Z,48.20
2019-03-10T21:16:00.343Z,47.10
2019-03-10T21:18:32.176Z,47.00
2019-03-10T21:21:03.229Z,47.90
2019-03-10T21:23:34.791Z,46.80
2019-03-10T21:26:06.111Z,46.80
2019-03-10T21:28:37.312Z,46.30
2019-03-10T21:31:09.472Z,45.90
2019-03-10T21:33:40.435Z,45.50
2019-03-10T21:36:12.595Z,46.60
2019-03-10T21:38:45.115Z,47.10
2019-03-10T21:41:16.437Z,47.20
2019-03-10T21:43:48.342Z,47.20
2019-03-10T21:46:19.443Z,46.70
2019-03-10T21:48:50.046Z,46.40
2019-03-10T21:51:20.889Z,46.40
2019-03-10T21:53:52.203Z,46.60
2019-03-10T21:56:24.726Z,46.90
2019-03-10T21:58:56.289Z,47.20
2019-03-10T22:01:27.487Z,47.80
2019-03-10T22:03:58.449Z,48.20
2019-03-10T22:06:30.971Z,48.10
2019-03-10T22:09:04.394Z,48.20
2019-03-10T22:11:36.376Z,48.20
2019-03-10T22:14:07.213Z,47.90
2019-03-10T22:16:38.656Z,48.00
2019-03-10T22:19:09.259Z,48.60
2019-03-10T22:21:40.495Z,48.60
2019-03-10T22:24:11.680Z,48.20
2019-03-10T22:26:42.621Z,48.40
2019-03-10T22:29:14.061Z,48.50
2019-03-10T22:31:45.383Z,48.70
2019-03-10T22:34:16.228Z,48.80
2019-03-10T22:36:47.186Z,48.80
2019-03-10T22:39:17.668Z,48.70
2019-03-10T22:41:48.508Z,49.50
2019-03-10T22:44:19.470Z,49.20
2019-03-10T22:46:50.794Z,49.20
2019-03-10T22:49:21.873Z,48.70
2019-03-10T22:51:53.073Z,48.50
2019-03-10T22:54:24.396Z,48.30
2019-03-10T22:56:55.715Z,47.30
2019-03-10T22:59:26.918Z,47.30
2019-03-10T23:01:58.364Z,47.90
2019-03-10T23:04:29.681Z,47.80
2019-03-10T23:07:00.643Z,47.80
2019-03-10T23:09:31.485Z,48.00
2019-03-10T23:12:02.690Z,47.40
2019-03-10T23:14:34.007Z,47.20
2019-03-10T23:17:05.811Z,46.80
2019-03-10T23:19:36.536Z,46.90
2019-03-10T23:22:07.733Z,46.70
2019-03-10T23:24:38.689Z,45.90
2019-03-10T23:27:09.531Z,45.70
2019-03-10T23:29:40.614Z,45.40
2019-03-10T23:32:12.056Z,45.30
2019-03-10T23:34:42.913Z,44.60
2019-03-10T23:37:13.856Z,44.50
2019-03-10T23:39:45.419Z,44.30
2019-03-10T23:42:16.380Z,44.40
2019-03-10T23:44:47.819Z,44.20
2019-03-10T23:47:19.023Z,44.70
2019-03-10T23:49:50.223Z,45.60
2019-03-10T23:52:21.308Z,44.90
2019-03-10T23:54:52.268Z,45.30
2019-03-10T23:57:25.147Z,45.30
2019-03-10T23:59:56.468Z,45.40
